AEE854 LGAV-LSGG
Flight info
| Callsign | AEE854 |
|---|---|
| Flight time | 2h 31m |
| Altitude | 34000 |
| Route | KOR UL53 OLGAT DCT GARGA DCT ANC DCT LURUT DCT EVANO DCT AOSTA L615 BANKO |
| Aircraft | A21N/M-SDE2E3FGHIJ1RWXY/LB1 |
Departure
| Time | 2026-05-08 02:09 |
|---|---|
| Airport | Athens Eleftherios Venizelos International Airport (LGAV) |
Arrival
| Time | 2026-05-08 04:40 |
|---|---|
| Airport | Geneva International Airport (LSGG) |
| Time | Latitude | Longitude | Altitude | Speed | Heading |
|---|---|---|---|---|---|
| 2026-05-08 01:22 | 37.94167 | 23.95302 | 306 ft | 0 kts | 217° |
| 2026-05-08 01:58 | 37.94176 | 23.95311 | 308 ft | 3 kts | 217° |
| 2026-05-08 01:58 | 37.94191 | 23.95325 | 309 ft | 3 kts | 217° |
| 2026-05-08 01:59 | 37.94208 | 23.95343 | 308 ft | 3 kts | 218° |
| 2026-05-08 01:59 | 37.94227 | 23.95359 | 306 ft | 3 kts | 205° |
| 2026-05-08 01:59 | 37.94244 | 23.95364 | 306 ft | 4 kts | 153° |
| 2026-05-08 01:59 | 37.94256 | 23.95348 | 306 ft | 4 kts | 127° |
| 2026-05-08 02:00 | 37.94262 | 23.95337 | 306 ft | 2 kts | 127° |
| 2026-05-08 02:03 | 37.94241 | 23.95373 | 307 ft | 10 kts | 126° |
| 2026-05-08 02:03 | 37.94196 | 23.95450 | 307 ft | 12 kts | 127° |
| 2026-05-08 02:04 | 37.94145 | 23.95536 | 308 ft | 13 kts | 127° |
| 2026-05-08 02:04 | 37.94093 | 23.95623 | 304 ft | 9 kts | 127° |
| 2026-05-08 02:04 | 37.94095 | 23.95701 | 302 ft | 11 kts | 51° |
| 2026-05-08 02:04 | 37.94167 | 23.95772 | 304 ft | 16 kts | 37° |
| 2026-05-08 02:05 | 37.94270 | 23.95869 | 305 ft | 21 kts | 37° |
| 2026-05-08 02:05 | 37.94394 | 23.95986 | 305 ft | 23 kts | 37° |
| 2026-05-08 02:05 | 37.94526 | 23.96110 | 305 ft | 24 kts | 37° |
| 2026-05-08 02:05 | 37.94662 | 23.96241 | 304 ft | 25 kts | 37° |
| 2026-05-08 02:06 | 37.94806 | 23.96380 | 306 ft | 27 kts | 37° |
| 2026-05-08 02:06 | 37.94954 | 23.96518 | 308 ft | 24 kts | 36° |
| 2026-05-08 02:06 | 37.95045 | 23.96604 | 307 ft | 10 kts | 38° |
| 2026-05-08 02:06 | 37.95108 | 23.96666 | 308 ft | 12 kts | 38° |
| 2026-05-08 02:07 | 37.95179 | 23.96734 | 308 ft | 14 kts | 36° |
| 2026-05-08 02:07 | 37.95261 | 23.96809 | 310 ft | 15 kts | 36° |
| 2026-05-08 02:07 | 37.95296 | 23.96886 | 309 ft | 7 kts | 110° |
| 2026-05-08 02:07 | 37.95272 | 23.96954 | 311 ft | 10 kts | 124° |
| 2026-05-08 02:08 | 37.95214 | 23.97018 | 315 ft | 13 kts | 172° |
| 2026-05-08 02:08 | 37.95133 | 23.96967 | 314 ft | 14 kts | 218° |
| 2026-05-08 02:08 | 37.94998 | 23.96837 | 313 ft | 53 kts | 216° |
| 2026-05-08 02:08 | 37.94503 | 23.96372 | 296 ft | 122 kts | 217° |
| 2026-05-08 02:09 | 37.93677 | 23.95592 | 292 ft | 171 kts | 217° |
| 2026-05-08 02:09 | 37.92771 | 23.94656 | 851 ft | 168 kts | 220° |
| 2026-05-08 02:09 | 37.91784 | 23.93853 | 1375 ft | 170 kts | 202° |
| 2026-05-08 02:09 | 37.90633 | 23.93339 | 1864 ft | 181 kts | 202° |
| 2026-05-08 02:10 | 37.89486 | 23.92568 | 2380 ft | 192 kts | 212° |
| 2026-05-08 02:10 | 37.88385 | 23.91530 | 2935 ft | 206 kts | 215° |
| 2026-05-08 02:10 | 37.87070 | 23.90593 | 3378 ft | 227 kts | 201° |
| 2026-05-08 02:10 | 37.85609 | 23.89781 | 4132 ft | 231 kts | 206° |
| 2026-05-08 02:11 | 37.84160 | 23.88863 | 4976 ft | 234 kts | 207° |
| 2026-05-08 02:11 | 37.82698 | 23.87903 | 5805 ft | 239 kts | 207° |
| 2026-05-08 02:11 | 37.81191 | 23.86898 | 6625 ft | 245 kts | 208° |
| 2026-05-08 02:11 | 37.79676 | 23.85882 | 7373 ft | 249 kts | 208° |
| 2026-05-08 02:12 | 37.78139 | 23.84844 | 8077 ft | 254 kts | 211° |
| 2026-05-08 02:12 | 37.76774 | 23.83350 | 8539 ft | 267 kts | 234° |
| 2026-05-08 02:12 | 37.76004 | 23.81192 | 9205 ft | 274 kts | 258° |
| 2026-05-08 02:12 | 37.76018 | 23.78785 | 9967 ft | 279 kts | 279° |
| 2026-05-08 02:13 | 37.76505 | 23.76367 | 10495 ft | 292 kts | 284° |
| 2026-05-08 02:13 | 37.77073 | 23.73810 | 10781 ft | 311 kts | 283° |
| 2026-05-08 02:13 | 37.77653 | 23.71079 | 11038 ft | 331 kts | 283° |
| 2026-05-08 02:13 | 37.78245 | 23.68200 | 11436 ft | 343 kts | 283° |
| 2026-05-08 02:14 | 37.78843 | 23.65258 | 12084 ft | 348 kts | 283° |
| 2026-05-08 02:14 | 37.79443 | 23.62270 | 12813 ft | 351 kts | 283° |
| 2026-05-08 02:14 | 37.80045 | 23.59287 | 13584 ft | 354 kts | 283° |
| 2026-05-08 02:14 | 37.80658 | 23.56229 | 14254 ft | 356 kts | 283° |
| 2026-05-08 02:15 | 37.81256 | 23.53221 | 14821 ft | 359 kts | 283° |
| 2026-05-08 02:15 | 37.81872 | 23.50142 | 15408 ft | 364 kts | 283° |
| 2026-05-08 02:15 | 37.82493 | 23.47025 | 15984 ft | 366 kts | 282° |
| 2026-05-08 02:15 | 37.83113 | 23.43870 | 16571 ft | 372 kts | 282° |
| 2026-05-08 02:16 | 37.83743 | 23.40682 | 17184 ft | 377 kts | 282° |
| 2026-05-08 02:16 | 37.84395 | 23.37433 | 17865 ft | 383 kts | 283° |
| 2026-05-08 02:16 | 37.85042 | 23.34159 | 18507 ft | 385 kts | 282° |
| 2026-05-08 02:16 | 37.85688 | 23.30853 | 19074 ft | 388 kts | 283° |
| 2026-05-08 02:17 | 37.86348 | 23.27546 | 19622 ft | 389 kts | 283° |
| 2026-05-08 02:17 | 37.87003 | 23.24224 | 20204 ft | 390 kts | 282° |
| 2026-05-08 02:17 | 37.87678 | 23.20848 | 20777 ft | 391 kts | 283° |
| 2026-05-08 02:17 | 37.88350 | 23.17514 | 21344 ft | 391 kts | 283° |
| 2026-05-08 02:18 | 37.89019 | 23.14167 | 21897 ft | 393 kts | 283° |
| 2026-05-08 02:18 | 37.89675 | 23.10812 | 22436 ft | 393 kts | 282° |
| 2026-05-08 02:18 | 37.90330 | 23.07444 | 22934 ft | 394 kts | 283° |
| 2026-05-08 02:18 | 37.90993 | 23.04069 | 23418 ft | 396 kts | 282° |
| 2026-05-08 02:19 | 37.91654 | 23.00686 | 23843 ft | 396 kts | 282° |
| 2026-05-08 02:19 | 37.92319 | 22.97305 | 24172 ft | 396 kts | 283° |
| 2026-05-08 02:19 | 37.93186 | 22.93981 | 24492 ft | 399 kts | 291° |
| 2026-05-08 02:19 | 37.94503 | 22.90873 | 24774 ft | 403 kts | 300° |
| 2026-05-08 02:20 | 37.96103 | 22.87932 | 25109 ft | 406 kts | 301° |
| 2026-05-08 02:20 | 37.97734 | 22.85014 | 25470 ft | 408 kts | 301° |
| 2026-05-08 02:20 | 37.99373 | 22.82063 | 25857 ft | 410 kts | 301° |
| 2026-05-08 02:20 | 38.01009 | 22.79102 | 26257 ft | 411 kts | 301° |
| 2026-05-08 02:21 | 38.02650 | 22.76122 | 26653 ft | 413 kts | 301° |
| 2026-05-08 02:21 | 38.04270 | 22.73181 | 27048 ft | 413 kts | 301° |
| 2026-05-08 02:21 | 38.05918 | 22.70189 | 27389 ft | 413 kts | 301° |
| 2026-05-08 02:21 | 38.07564 | 22.67179 | 27767 ft | 415 kts | 300° |
| 2026-05-08 02:22 | 38.09213 | 22.64161 | 28151 ft | 417 kts | 300° |
| 2026-05-08 02:22 | 38.10864 | 22.61147 | 28609 ft | 414 kts | 300° |
| 2026-05-08 02:22 | 38.12502 | 22.58161 | 29004 ft | 409 kts | 300° |
| 2026-05-08 02:22 | 38.14131 | 22.55191 | 29311 ft | 411 kts | 300° |
| 2026-05-08 02:23 | 38.15754 | 22.52203 | 29811 ft | 410 kts | 300° |
| 2026-05-08 02:23 | 38.17372 | 22.49231 | 30303 ft | 406 kts | 300° |
| 2026-05-08 02:23 | 38.18976 | 22.46291 | 30701 ft | 404 kts | 300° |
| 2026-05-08 02:23 | 38.20576 | 22.43356 | 31021 ft | 403 kts | 300° |
| 2026-05-08 02:24 | 38.22173 | 22.40421 | 31315 ft | 403 kts | 300° |
| 2026-05-08 02:24 | 38.23762 | 22.37498 | 31633 ft | 401 kts | 300° |
| 2026-05-08 02:24 | 38.25347 | 22.34571 | 31974 ft | 400 kts | 299° |
| 2026-05-08 02:24 | 38.26919 | 22.31659 | 32345 ft | 398 kts | 299° |
| 2026-05-08 02:25 | 38.28487 | 22.28770 | 32693 ft | 395 kts | 299° |
| 2026-05-08 02:25 | 38.29520 | 22.26865 | 32904 ft | 394 kts | 299° |
| 2026-05-08 02:25 | 38.31075 | 22.24005 | 33249 ft | 391 kts | 298° |
| 2026-05-08 02:25 | 38.33125 | 22.20206 | 33673 ft | 388 kts | 298° |
| 2026-05-08 02:26 | 38.34133 | 22.18335 | 33849 ft | 387 kts | 298° |
| 2026-05-08 02:26 | 38.35662 | 22.15503 | 34080 ft | 386 kts | 298° |
| 2026-05-08 02:26 | 38.38703 | 22.09858 | 34132 ft | 388 kts | 298° |
| 2026-05-08 02:27 | 38.41758 | 22.04180 | 34095 ft | 389 kts | 298° |
| 2026-05-08 02:27 | 38.44824 | 21.98475 | 34102 ft | 390 kts | 298° |
| 2026-05-08 02:28 | 38.47884 | 21.92773 | 34097 ft | 390 kts | 298° |
| 2026-05-08 02:28 | 38.50949 | 21.87052 | 34094 ft | 393 kts | 297° |
| 2026-05-08 02:29 | 38.54004 | 21.81322 | 34121 ft | 388 kts | 297° |
| 2026-05-08 02:29 | 38.57044 | 21.75602 | 34087 ft | 390 kts | 298° |
| 2026-05-08 02:30 | 38.60105 | 21.69841 | 34094 ft | 390 kts | 298° |
| 2026-05-08 02:30 | 38.63159 | 21.64107 | 34095 ft | 393 kts | 298° |
| 2026-05-08 02:31 | 38.66250 | 21.58284 | 34115 ft | 392 kts | 297° |
| 2026-05-08 02:31 | 38.69293 | 21.52504 | 34090 ft | 391 kts | 297° |
| 2026-05-08 02:32 | 38.72315 | 21.46706 | 34097 ft | 392 kts | 297° |
| 2026-05-08 02:32 | 38.75367 | 21.40959 | 34105 ft | 393 kts | 297° |
| 2026-05-08 02:33 | 38.78404 | 21.35173 | 34075 ft | 390 kts | 297° |
| 2026-05-08 02:33 | 38.81460 | 21.29353 | 34089 ft | 392 kts | 297° |
| 2026-05-08 02:34 | 38.84485 | 21.23587 | 34081 ft | 392 kts | 297° |
| 2026-05-08 02:34 | 38.87530 | 21.17790 | 34073 ft | 391 kts | 297° |
| 2026-05-08 02:35 | 38.90545 | 21.11973 | 34059 ft | 392 kts | 296° |
| 2026-05-08 02:35 | 38.93591 | 21.06130 | 34049 ft | 394 kts | 297° |
| 2026-05-08 02:36 | 38.96633 | 21.00287 | 34038 ft | 393 kts | 296° |
| 2026-05-08 02:36 | 38.99676 | 20.94433 | 34043 ft | 394 kts | 296° |
| 2026-05-08 02:37 | 39.02716 | 20.88572 | 34032 ft | 394 kts | 296° |
| 2026-05-08 02:37 | 39.05759 | 20.82703 | 34027 ft | 395 kts | 296° |
| 2026-05-08 02:38 | 39.08792 | 20.76860 | 34036 ft | 395 kts | 296° |
| 2026-05-08 02:38 | 39.11853 | 20.70921 | 34051 ft | 396 kts | 296° |
| 2026-05-08 02:39 | 39.14893 | 20.65010 | 34049 ft | 396 kts | 296° |
| 2026-05-08 02:39 | 39.17927 | 20.59100 | 34051 ft | 395 kts | 296° |
| 2026-05-08 02:40 | 39.20945 | 20.53218 | 34050 ft | 396 kts | 296° |
| 2026-05-08 02:40 | 39.23984 | 20.47294 | 34050 ft | 396 kts | 296° |
| 2026-05-08 02:41 | 39.27022 | 20.41348 | 34043 ft | 396 kts | 295° |
| 2026-05-08 02:41 | 39.30059 | 20.35409 | 34041 ft | 395 kts | 295° |
| 2026-05-08 02:42 | 39.33095 | 20.29419 | 34048 ft | 397 kts | 295° |
| 2026-05-08 02:42 | 39.36116 | 20.23477 | 34032 ft | 400 kts | 295° |
| 2026-05-08 02:43 | 39.39160 | 20.17463 | 34017 ft | 399 kts | 295° |
| 2026-05-08 02:43 | 39.42230 | 20.11466 | 34028 ft | 400 kts | 295° |
| 2026-05-08 02:44 | 39.45572 | 20.05667 | 33992 ft | 410 kts | 304° |
| 2026-05-08 02:44 | 39.49583 | 20.00393 | 33995 ft | 411 kts | 305° |
| 2026-05-08 02:45 | 39.53604 | 19.95121 | 33993 ft | 411 kts | 305° |
| 2026-05-08 02:45 | 39.57604 | 19.89836 | 33995 ft | 411 kts | 305° |
| 2026-05-08 02:46 | 39.61601 | 19.84544 | 34009 ft | 411 kts | 305° |
| 2026-05-08 02:46 | 39.65611 | 19.79217 | 34008 ft | 415 kts | 305° |
| 2026-05-08 02:47 | 39.69662 | 19.73828 | 33999 ft | 417 kts | 305° |
| 2026-05-08 02:47 | 39.73721 | 19.68421 | 33999 ft | 418 kts | 305° |
| 2026-05-08 02:48 | 39.77780 | 19.63011 | 33992 ft | 417 kts | 305° |
| 2026-05-08 02:48 | 39.81819 | 19.57593 | 33992 ft | 417 kts | 305° |
| 2026-05-08 02:49 | 39.85846 | 19.52217 | 33991 ft | 417 kts | 305° |
| 2026-05-08 02:49 | 39.89884 | 19.46803 | 34014 ft | 417 kts | 305° |
| 2026-05-08 02:50 | 39.93954 | 19.41324 | 33998 ft | 423 kts | 306° |
| 2026-05-08 02:50 | 39.98054 | 19.35807 | 33992 ft | 424 kts | 306° |
| 2026-05-08 02:51 | 40.02154 | 19.30278 | 33992 ft | 424 kts | 306° |
| 2026-05-08 02:51 | 40.06251 | 19.24747 | 33989 ft | 423 kts | 306° |
| 2026-05-08 02:52 | 40.10341 | 19.19209 | 33990 ft | 423 kts | 306° |
| 2026-05-08 02:52 | 40.14426 | 19.13671 | 33991 ft | 423 kts | 306° |
| 2026-05-08 02:53 | 40.18524 | 19.08091 | 34007 ft | 428 kts | 307° |
| 2026-05-08 02:53 | 40.22670 | 19.02454 | 33996 ft | 430 kts | 307° |
| 2026-05-08 02:54 | 40.26780 | 18.96825 | 33986 ft | 431 kts | 307° |
| 2026-05-08 02:54 | 40.30949 | 18.91173 | 33989 ft | 431 kts | 307° |
| 2026-05-08 02:55 | 40.37178 | 18.82688 | 33986 ft | 430 kts | 307° |
| 2026-05-08 02:56 | 40.41319 | 18.77025 | 34008 ft | 430 kts | 308° |
| 2026-05-08 02:56 | 40.45479 | 18.71306 | 33994 ft | 435 kts | 308° |
| 2026-05-08 02:57 | 40.49674 | 18.65558 | 33977 ft | 436 kts | 308° |
| 2026-05-08 02:57 | 40.53871 | 18.59785 | 33977 ft | 437 kts | 308° |
| 2026-05-08 02:58 | 40.58055 | 18.54001 | 33978 ft | 436 kts | 308° |
| 2026-05-08 02:58 | 40.62247 | 18.48209 | 33974 ft | 436 kts | 308° |
| 2026-05-08 02:59 | 40.66435 | 18.42424 | 33993 ft | 436 kts | 308° |
| 2026-05-08 02:59 | 40.70629 | 18.36587 | 33977 ft | 440 kts | 308° |
| 2026-05-08 03:00 | 40.74818 | 18.30777 | 33980 ft | 439 kts | 308° |
| 2026-05-08 03:00 | 40.79022 | 18.24921 | 33983 ft | 439 kts | 308° |
| 2026-05-08 03:01 | 40.83226 | 18.19059 | 33988 ft | 439 kts | 308° |
| 2026-05-08 03:01 | 40.87430 | 18.13195 | 33983 ft | 440 kts | 308° |
| 2026-05-08 03:02 | 40.91632 | 18.07311 | 33986 ft | 440 kts | 308° |
| 2026-05-08 03:02 | 40.95821 | 18.01406 | 33984 ft | 440 kts | 307° |
| 2026-05-08 03:03 | 41.00015 | 17.95520 | 33989 ft | 438 kts | 307° |
| 2026-05-08 03:03 | 41.04189 | 17.89646 | 33988 ft | 437 kts | 307° |
| 2026-05-08 03:04 | 41.08356 | 17.83771 | 33986 ft | 437 kts | 307° |
| 2026-05-08 03:04 | 41.12514 | 17.77888 | 33988 ft | 437 kts | 307° |
| 2026-05-08 03:05 | 41.16683 | 17.71981 | 33994 ft | 440 kts | 307° |
| 2026-05-08 03:05 | 41.20870 | 17.66033 | 33983 ft | 441 kts | 307° |
| 2026-05-08 03:06 | 41.24354 | 17.61074 | 33977 ft | 441 kts | 307° |
| 2026-05-08 03:06 | 41.28528 | 17.55132 | 33983 ft | 437 kts | 307° |
| 2026-05-08 03:07 | 41.33344 | 17.48245 | 33982 ft | 437 kts | 307° |
| 2026-05-08 03:07 | 41.36799 | 17.43251 | 33991 ft | 437 kts | 307° |
| 2026-05-08 03:08 | 41.40930 | 17.37303 | 33989 ft | 437 kts | 307° |
| 2026-05-08 03:08 | 41.45062 | 17.31363 | 33983 ft | 437 kts | 307° |
| 2026-05-08 03:09 | 41.49203 | 17.25420 | 33985 ft | 438 kts | 307° |
| 2026-05-08 03:09 | 41.53349 | 17.19450 | 33986 ft | 437 kts | 307° |
| 2026-05-08 03:10 | 41.57479 | 17.13487 | 33988 ft | 437 kts | 307° |
| 2026-05-08 03:10 | 41.61599 | 17.07513 | 33990 ft | 439 kts | 307° |
| 2026-05-08 03:11 | 41.65731 | 17.01533 | 33983 ft | 438 kts | 307° |
| 2026-05-08 03:11 | 41.69857 | 16.95538 | 33971 ft | 441 kts | 307° |
| 2026-05-08 03:12 | 41.73987 | 16.89530 | 33977 ft | 438 kts | 307° |
| 2026-05-08 03:12 | 41.78104 | 16.83528 | 33993 ft | 437 kts | 307° |
| 2026-05-08 03:13 | 41.82190 | 16.77561 | 33981 ft | 434 kts | 306° |
| 2026-05-08 03:13 | 41.86262 | 16.71582 | 33984 ft | 434 kts | 306° |
| 2026-05-08 03:14 | 41.90305 | 16.65635 | 33987 ft | 433 kts | 306° |
| 2026-05-08 03:14 | 41.94366 | 16.59659 | 33982 ft | 433 kts | 306° |
| 2026-05-08 03:15 | 41.98419 | 16.53679 | 33988 ft | 433 kts | 306° |
| 2026-05-08 03:15 | 42.02462 | 16.47688 | 33989 ft | 433 kts | 306° |
| 2026-05-08 03:16 | 42.06508 | 16.41708 | 33991 ft | 431 kts | 306° |
| 2026-05-08 03:16 | 42.10536 | 16.35723 | 33986 ft | 430 kts | 306° |
| 2026-05-08 03:17 | 42.14551 | 16.29755 | 33994 ft | 429 kts | 306° |
| 2026-05-08 03:17 | 42.18556 | 16.23794 | 33988 ft | 429 kts | 306° |
| 2026-05-08 03:18 | 42.22560 | 16.17810 | 33984 ft | 429 kts | 306° |
| 2026-05-08 03:18 | 42.26535 | 16.11792 | 33980 ft | 427 kts | 303° |
| 2026-05-08 03:19 | 42.29979 | 16.05326 | 33999 ft | 423 kts | 300° |
| 2026-05-08 03:19 | 42.33337 | 15.98839 | 33995 ft | 419 kts | 300° |
| 2026-05-08 03:20 | 42.36674 | 15.92379 | 33981 ft | 420 kts | 300° |
| 2026-05-08 03:20 | 42.40024 | 15.85897 | 33980 ft | 420 kts | 300° |
| 2026-05-08 03:21 | 42.43366 | 15.79413 | 33978 ft | 420 kts | 300° |
| 2026-05-08 03:21 | 42.46724 | 15.72922 | 33979 ft | 420 kts | 300° |
| 2026-05-08 03:22 | 42.50061 | 15.66420 | 33982 ft | 420 kts | 300° |
| 2026-05-08 03:22 | 42.53372 | 15.59963 | 33987 ft | 421 kts | 300° |
| 2026-05-08 03:23 | 42.56712 | 15.53433 | 33981 ft | 421 kts | 300° |
| 2026-05-08 03:23 | 42.60044 | 15.46914 | 33980 ft | 421 kts | 300° |
| 2026-05-08 03:24 | 42.63378 | 15.40374 | 33983 ft | 421 kts | 300° |
| 2026-05-08 03:24 | 42.66702 | 15.33839 | 33977 ft | 420 kts | 300° |
| 2026-05-08 03:25 | 42.70026 | 15.27294 | 33986 ft | 421 kts | 300° |
| 2026-05-08 03:25 | 42.73351 | 15.20726 | 33969 ft | 422 kts | 300° |
| 2026-05-08 03:26 | 42.76675 | 15.14146 | 33977 ft | 422 kts | 300° |
| 2026-05-08 03:26 | 42.79997 | 15.07563 | 33978 ft | 423 kts | 300° |
| 2026-05-08 03:27 | 42.83334 | 15.00941 | 33979 ft | 423 kts | 300° |
| 2026-05-08 03:27 | 42.86654 | 14.94323 | 33974 ft | 422 kts | 300° |
| 2026-05-08 03:28 | 42.89970 | 14.87705 | 33979 ft | 423 kts | 300° |
| 2026-05-08 03:28 | 42.93289 | 14.81063 | 33976 ft | 423 kts | 300° |
| 2026-05-08 03:29 | 42.96603 | 14.74421 | 33989 ft | 423 kts | 300° |
| 2026-05-08 03:29 | 42.99909 | 14.67764 | 33984 ft | 423 kts | 299° |
| 2026-05-08 03:30 | 43.04864 | 14.57768 | 33989 ft | 423 kts | 299° |
| 2026-05-08 03:31 | 43.11461 | 14.44419 | 33993 ft | 423 kts | 299° |
| 2026-05-08 03:32 | 43.16370 | 14.34439 | 33997 ft | 422 kts | 299° |
| 2026-05-08 03:32 | 43.19668 | 14.27716 | 33994 ft | 423 kts | 299° |
| 2026-05-08 03:33 | 43.22945 | 14.21022 | 34010 ft | 423 kts | 299° |
| 2026-05-08 03:33 | 43.26219 | 14.14327 | 34000 ft | 423 kts | 299° |
| 2026-05-08 03:34 | 43.29469 | 14.07660 | 34001 ft | 422 kts | 299° |
| 2026-05-08 03:34 | 43.32734 | 14.00950 | 34002 ft | 423 kts | 298° |
| 2026-05-08 03:35 | 43.35993 | 13.94225 | 33998 ft | 422 kts | 298° |
| 2026-05-08 03:35 | 43.39246 | 13.87506 | 34003 ft | 421 kts | 298° |
| 2026-05-08 03:36 | 43.42487 | 13.80800 | 34004 ft | 421 kts | 298° |
| 2026-05-08 03:36 | 43.45721 | 13.74081 | 33998 ft | 421 kts | 298° |
| 2026-05-08 03:37 | 43.48955 | 13.67355 | 34008 ft | 421 kts | 298° |
| 2026-05-08 03:37 | 43.52177 | 13.60637 | 34003 ft | 421 kts | 298° |
| 2026-05-08 03:38 | 43.55398 | 13.53899 | 34003 ft | 420 kts | 298° |
| 2026-05-08 03:38 | 43.58604 | 13.47126 | 34014 ft | 419 kts | 295° |
| 2026-05-08 03:39 | 43.61405 | 13.40105 | 34001 ft | 417 kts | 293° |
| 2026-05-08 03:39 | 43.64154 | 13.33060 | 34011 ft | 416 kts | 293° |
| 2026-05-08 03:40 | 43.66904 | 13.26036 | 33998 ft | 415 kts | 294° |
| 2026-05-08 03:40 | 43.69650 | 13.19019 | 33997 ft | 415 kts | 293° |
| 2026-05-08 03:41 | 43.72384 | 13.11994 | 34013 ft | 415 kts | 293° |
| 2026-05-08 03:41 | 43.75116 | 13.04940 | 34002 ft | 416 kts | 293° |
| 2026-05-08 03:42 | 43.77851 | 12.97887 | 34001 ft | 416 kts | 293° |
| 2026-05-08 03:42 | 43.80583 | 12.90822 | 34006 ft | 416 kts | 293° |
| 2026-05-08 03:43 | 43.83291 | 12.83796 | 34004 ft | 416 kts | 293° |
| 2026-05-08 03:43 | 43.86008 | 12.76718 | 34015 ft | 416 kts | 293° |
| 2026-05-08 03:44 | 43.88727 | 12.69635 | 34002 ft | 417 kts | 292° |
| 2026-05-08 03:44 | 43.91008 | 12.63683 | 33995 ft | 417 kts | 292° |
| 2026-05-08 03:45 | 43.93709 | 12.56596 | 33994 ft | 414 kts | 292° |
| 2026-05-08 03:45 | 43.96405 | 12.49522 | 33995 ft | 414 kts | 292° |
| 2026-05-08 03:46 | 43.99075 | 12.42489 | 33998 ft | 415 kts | 292° |
| 2026-05-08 03:46 | 44.01761 | 12.35406 | 34006 ft | 415 kts | 292° |
| 2026-05-08 03:47 | 44.04443 | 12.28297 | 34021 ft | 415 kts | 292° |
| 2026-05-08 03:47 | 44.07120 | 12.21200 | 34021 ft | 414 kts | 292° |
| 2026-05-08 03:48 | 44.09791 | 12.14099 | 34021 ft | 414 kts | 292° |
| 2026-05-08 03:48 | 44.12459 | 12.06986 | 34020 ft | 414 kts | 291° |
| 2026-05-08 03:49 | 44.15126 | 11.99828 | 34038 ft | 419 kts | 291° |
| 2026-05-08 03:49 | 44.17821 | 11.92614 | 34029 ft | 420 kts | 291° |
| 2026-05-08 03:50 | 44.20515 | 11.85380 | 34032 ft | 420 kts | 291° |
| 2026-05-08 03:50 | 44.23212 | 11.78098 | 34032 ft | 420 kts | 291° |
| 2026-05-08 03:51 | 44.25890 | 11.70850 | 34041 ft | 420 kts | 291° |
| 2026-05-08 03:51 | 44.28551 | 11.63631 | 34048 ft | 423 kts | 291° |
| 2026-05-08 03:52 | 44.31245 | 11.56309 | 34041 ft | 424 kts | 291° |
| 2026-05-08 03:52 | 44.33948 | 11.48951 | 34033 ft | 423 kts | 291° |
| 2026-05-08 03:53 | 44.36618 | 11.41682 | 34034 ft | 423 kts | 291° |
| 2026-05-08 03:53 | 44.39305 | 11.34352 | 34030 ft | 423 kts | 291° |
| 2026-05-08 03:54 | 44.41984 | 11.27003 | 34032 ft | 425 kts | 291° |
| 2026-05-08 03:54 | 44.44673 | 11.19603 | 34057 ft | 427 kts | 291° |
| 2026-05-08 03:55 | 44.47351 | 11.12219 | 34046 ft | 425 kts | 290° |
| 2026-05-08 03:55 | 44.50017 | 11.04831 | 34046 ft | 425 kts | 290° |
| 2026-05-08 03:56 | 44.52701 | 10.97442 | 34040 ft | 426 kts | 291° |
| 2026-05-08 03:56 | 44.55486 | 10.90122 | 34035 ft | 426 kts | 292° |
| 2026-05-08 03:57 | 44.58275 | 10.82781 | 34038 ft | 426 kts | 291° |
| 2026-05-08 03:57 | 44.61054 | 10.75434 | 34028 ft | 425 kts | 291° |
| 2026-05-08 03:58 | 44.63822 | 10.68090 | 34027 ft | 425 kts | 291° |
| 2026-05-08 03:58 | 44.66593 | 10.60747 | 34042 ft | 425 kts | 291° |
| 2026-05-08 03:59 | 44.69351 | 10.53393 | 34029 ft | 425 kts | 291° |
| 2026-05-08 03:59 | 44.72106 | 10.46051 | 34018 ft | 422 kts | 291° |
| 2026-05-08 04:00 | 44.74827 | 10.38763 | 34027 ft | 421 kts | 290° |
| 2026-05-08 04:00 | 44.77540 | 10.31466 | 34026 ft | 421 kts | 290° |
| 2026-05-08 04:01 | 44.80248 | 10.24167 | 34027 ft | 421 kts | 290° |
| 2026-05-08 04:01 | 44.82959 | 10.16853 | 34018 ft | 422 kts | 290° |
| 2026-05-08 04:02 | 44.85671 | 10.09536 | 34018 ft | 421 kts | 290° |
| 2026-05-08 04:02 | 44.88368 | 10.02216 | 34013 ft | 420 kts | 290° |
| 2026-05-08 04:03 | 44.91066 | 9.94893 | 34028 ft | 421 kts | 290° |
| 2026-05-08 04:03 | 44.95101 | 9.83873 | 34017 ft | 421 kts | 290° |
| 2026-05-08 04:04 | 44.97785 | 9.76532 | 34025 ft | 420 kts | 290° |
| 2026-05-08 04:04 | 45.00455 | 9.69196 | 34020 ft | 419 kts | 290° |
| 2026-05-08 04:05 | 45.03116 | 9.61870 | 34024 ft | 419 kts | 290° |
| 2026-05-08 04:05 | 45.05781 | 9.54511 | 34026 ft | 423 kts | 291° |
| 2026-05-08 04:06 | 45.08460 | 9.47098 | 34024 ft | 424 kts | 291° |
| 2026-05-08 04:06 | 45.11139 | 9.39664 | 34024 ft | 424 kts | 291° |
| 2026-05-08 04:07 | 45.13810 | 9.32234 | 34028 ft | 423 kts | 291° |
| 2026-05-08 04:07 | 45.16475 | 9.24799 | 34039 ft | 424 kts | 292° |
| 2026-05-08 04:08 | 45.19139 | 9.17346 | 34023 ft | 427 kts | 292° |
| 2026-05-08 04:08 | 45.21814 | 9.09826 | 34027 ft | 427 kts | 292° |
| 2026-05-08 04:09 | 45.24490 | 9.02290 | 34021 ft | 427 kts | 292° |
| 2026-05-08 04:09 | 45.27160 | 8.94763 | 34021 ft | 427 kts | 292° |
| 2026-05-08 04:10 | 45.29828 | 8.87214 | 34053 ft | 427 kts | 292° |
| 2026-05-08 04:10 | 45.32485 | 8.79682 | 34053 ft | 426 kts | 292° |
| 2026-05-08 04:11 | 45.35073 | 8.72108 | 34056 ft | 426 kts | 291° |
| 2026-05-08 04:11 | 45.37604 | 8.64494 | 34056 ft | 425 kts | 291° |
| 2026-05-08 04:12 | 45.40116 | 8.56876 | 34056 ft | 425 kts | 290° |
| 2026-05-08 04:12 | 45.42643 | 8.49227 | 34052 ft | 432 kts | 290° |
| 2026-05-08 04:13 | 45.45169 | 8.41547 | 34021 ft | 427 kts | 290° |
| 2026-05-08 04:13 | 45.47695 | 8.33880 | 34034 ft | 428 kts | 290° |
| 2026-05-08 04:14 | 45.50210 | 8.26198 | 34033 ft | 428 kts | 290° |
| 2026-05-08 04:14 | 45.52710 | 8.18546 | 34046 ft | 420 kts | 290° |
| 2026-05-08 04:15 | 45.55183 | 8.10944 | 34047 ft | 427 kts | 290° |
| 2026-05-08 04:15 | 45.57682 | 8.03244 | 34044 ft | 428 kts | 290° |
| 2026-05-08 04:16 | 45.60176 | 7.95529 | 34048 ft | 427 kts | 290° |
| 2026-05-08 04:16 | 45.62662 | 7.87817 | 34048 ft | 427 kts | 290° |
| 2026-05-08 04:17 | 45.65143 | 7.80102 | 34074 ft | 426 kts | 290° |
| 2026-05-08 04:17 | 45.67583 | 7.72482 | 34063 ft | 415 kts | 290° |
| 2026-05-08 04:18 | 45.70010 | 7.64905 | 34071 ft | 423 kts | 289° |
| 2026-05-08 04:18 | 45.72443 | 7.57274 | 34082 ft | 424 kts | 290° |
| 2026-05-08 04:19 | 45.74872 | 7.49636 | 34084 ft | 419 kts | 289° |
| 2026-05-08 04:19 | 45.77280 | 7.42035 | 34082 ft | 419 kts | 290° |
| 2026-05-08 04:20 | 45.79511 | 7.34389 | 34040 ft | 409 kts | 283° |
| 2026-05-08 04:20 | 45.80091 | 7.30431 | 33062 ft | 407 kts | 274° |
| 2026-05-08 04:20 | 45.80400 | 7.26345 | 31702 ft | 417 kts | 272° |
| 2026-05-08 04:21 | 45.80691 | 7.22164 | 30455 ft | 425 kts | 272° |
| 2026-05-08 04:21 | 45.81004 | 7.17919 | 29123 ft | 430 kts | 273° |
| 2026-05-08 04:21 | 45.81340 | 7.13660 | 28193 ft | 427 kts | 273° |
| 2026-05-08 04:21 | 45.81696 | 7.09466 | 27460 ft | 422 kts | 275° |
| 2026-05-08 04:22 | 45.82429 | 7.05412 | 26761 ft | 421 kts | 287° |
| 2026-05-08 04:22 | 45.83757 | 7.01688 | 26097 ft | 421 kts | 298° |
| 2026-05-08 04:22 | 45.85387 | 6.98226 | 25455 ft | 416 kts | 301° |
| 2026-05-08 04:22 | 45.87030 | 6.94838 | 24838 ft | 410 kts | 301° |
| 2026-05-08 04:23 | 45.88102 | 6.92617 | 24416 ft | 407 kts | 301° |
| 2026-05-08 04:23 | 45.89694 | 6.89296 | 23794 ft | 402 kts | 301° |
| 2026-05-08 04:23 | 45.91265 | 6.85997 | 23123 ft | 398 kts | 301° |
| 2026-05-08 04:23 | 45.92818 | 6.82733 | 22470 ft | 393 kts | 301° |
| 2026-05-08 04:24 | 45.94354 | 6.79500 | 21839 ft | 391 kts | 301° |
| 2026-05-08 04:24 | 45.95880 | 6.76282 | 21232 ft | 389 kts | 301° |
| 2026-05-08 04:24 | 45.97382 | 6.73061 | 20639 ft | 387 kts | 301° |
| 2026-05-08 04:24 | 45.98867 | 6.69851 | 20065 ft | 384 kts | 301° |
| 2026-05-08 04:25 | 46.00338 | 6.66670 | 19528 ft | 381 kts | 301° |
| 2026-05-08 04:25 | 46.01802 | 6.63501 | 19001 ft | 380 kts | 301° |
| 2026-05-08 04:25 | 46.03264 | 6.60337 | 18490 ft | 379 kts | 301° |
| 2026-05-08 04:25 | 46.04721 | 6.57180 | 17950 ft | 379 kts | 301° |
| 2026-05-08 04:26 | 46.06190 | 6.54021 | 17394 ft | 379 kts | 302° |
| 2026-05-08 04:26 | 46.07680 | 6.50885 | 16837 ft | 379 kts | 302° |
| 2026-05-08 04:26 | 46.09168 | 6.47757 | 16316 ft | 378 kts | 302° |
| 2026-05-08 04:26 | 46.10657 | 6.44619 | 15813 ft | 378 kts | 302° |
| 2026-05-08 04:27 | 46.12137 | 6.41485 | 15300 ft | 377 kts | 302° |
| 2026-05-08 04:27 | 46.13611 | 6.38356 | 14812 ft | 377 kts | 302° |
| 2026-05-08 04:27 | 46.15081 | 6.35231 | 14300 ft | 377 kts | 302° |
| 2026-05-08 04:27 | 46.16542 | 6.32130 | 13776 ft | 371 kts | 302° |
| 2026-05-08 04:28 | 46.17907 | 6.29017 | 13197 ft | 363 kts | 294° |
| 2026-05-08 04:28 | 46.18612 | 6.25607 | 12666 ft | 351 kts | 274° |
| 2026-05-08 04:28 | 46.18392 | 6.22187 | 12343 ft | 334 kts | 251° |
| 2026-05-08 04:28 | 46.17307 | 6.19366 | 12113 ft | 317 kts | 226° |
| 2026-05-08 04:29 | 46.15623 | 6.17449 | 11932 ft | 302 kts | 213° |
| 2026-05-08 04:29 | 46.13931 | 6.15756 | 11771 ft | 290 kts | 216° |
| 2026-05-08 04:29 | 46.12383 | 6.13943 | 11410 ft | 285 kts | 220° |
| 2026-05-08 04:29 | 46.10915 | 6.12029 | 10925 ft | 282 kts | 222° |
| 2026-05-08 04:30 | 46.09493 | 6.10072 | 10425 ft | 282 kts | 223° |
| 2026-05-08 04:30 | 46.08086 | 6.08101 | 9971 ft | 281 kts | 223° |
| 2026-05-08 04:30 | 46.06693 | 6.06134 | 9506 ft | 279 kts | 224° |
| 2026-05-08 04:30 | 46.05319 | 6.04176 | 9091 ft | 276 kts | 224° |
| 2026-05-08 04:31 | 46.03966 | 6.02242 | 8709 ft | 273 kts | 224° |
| 2026-05-08 04:31 | 46.02618 | 6.00308 | 8345 ft | 273 kts | 224° |
| 2026-05-08 04:31 | 46.01273 | 5.98377 | 7999 ft | 273 kts | 225° |
| 2026-05-08 04:31 | 45.99935 | 5.96455 | 7719 ft | 267 kts | 224° |
| 2026-05-08 04:32 | 45.98650 | 5.94606 | 7585 ft | 254 kts | 224° |
| 2026-05-08 04:32 | 45.97449 | 5.92878 | 7625 ft | 235 kts | 224° |
| 2026-05-08 04:32 | 45.96293 | 5.91221 | 7658 ft | 235 kts | 224° |
| 2026-05-08 04:32 | 45.95139 | 5.89566 | 7552 ft | 234 kts | 224° |
| 2026-05-08 04:33 | 45.94125 | 5.87773 | 7254 ft | 232 kts | 242° |
| 2026-05-08 04:33 | 45.93719 | 5.85538 | 7017 ft | 235 kts | 268° |
| 2026-05-08 04:33 | 45.94035 | 5.83226 | 6971 ft | 240 kts | 292° |
| 2026-05-08 04:33 | 45.95036 | 5.81308 | 6973 ft | 244 kts | 319° |
| 2026-05-08 04:34 | 45.96544 | 5.80191 | 6985 ft | 248 kts | 345° |
| 2026-05-08 04:34 | 45.98261 | 5.80148 | 6987 ft | 250 kts | 12° |
| 2026-05-08 04:34 | 45.99898 | 5.81005 | 7009 ft | 251 kts | 24° |
| 2026-05-08 04:34 | 46.01506 | 5.81980 | 6934 ft | 251 kts | 18° |
| 2026-05-08 04:35 | 46.03150 | 5.82784 | 6689 ft | 250 kts | 20° |
| 2026-05-08 04:35 | 46.04709 | 5.83856 | 6392 ft | 249 kts | 30° |
| 2026-05-08 04:35 | 46.06134 | 5.85268 | 6064 ft | 248 kts | 38° |
| 2026-05-08 04:35 | 46.07425 | 5.86895 | 5732 ft | 246 kts | 44° |
| 2026-05-08 04:36 | 46.08607 | 5.88644 | 5398 ft | 242 kts | 45° |
| 2026-05-08 04:36 | 46.09779 | 5.90358 | 5083 ft | 237 kts | 45° |
| 2026-05-08 04:36 | 46.10926 | 5.92034 | 4761 ft | 233 kts | 45° |
| 2026-05-08 04:36 | 46.12048 | 5.93676 | 4448 ft | 227 kts | 46° |
| 2026-05-08 04:37 | 46.13141 | 5.95274 | 4154 ft | 221 kts | 46° |
| 2026-05-08 04:37 | 46.14206 | 5.96831 | 3879 ft | 211 kts | 46° |
| 2026-05-08 04:37 | 46.15212 | 5.98306 | 3645 ft | 202 kts | 46° |
| 2026-05-08 04:37 | 46.16170 | 5.99708 | 3367 ft | 190 kts | 46° |
| 2026-05-08 04:38 | 46.17071 | 6.01028 | 3094 ft | 180 kts | 46° |
| 2026-05-08 04:38 | 46.17918 | 6.02269 | 2876 ft | 167 kts | 46° |
| 2026-05-08 04:38 | 46.18689 | 6.03399 | 2639 ft | 148 kts | 45° |
| 2026-05-08 04:38 | 46.19375 | 6.04406 | 2400 ft | 138 kts | 45° |
| 2026-05-08 04:39 | 46.20048 | 6.05388 | 2179 ft | 137 kts | 45° |
| 2026-05-08 04:39 | 46.20713 | 6.06368 | 2037 ft | 137 kts | 45° |
| 2026-05-08 04:39 | 46.21382 | 6.07347 | 1848 ft | 137 kts | 44° |
| 2026-05-08 04:39 | 46.22055 | 6.08312 | 1631 ft | 136 kts | 45° |
| 2026-05-08 04:40 | 46.22712 | 6.09292 | 1467 ft | 136 kts | 45° |
| 2026-05-08 04:40 | 46.23340 | 6.10209 | 1405 ft | 111 kts | 45° |
| 2026-05-08 04:40 | 46.23761 | 6.10821 | 1384 ft | 54 kts | 45° |
| 2026-05-08 04:40 | 46.23859 | 6.10969 | 1383 ft | 17 kts | 52° |
| 2026-05-08 04:41 | 46.23812 | 6.11076 | 1385 ft | 2 kts | 175° |
| 2026-05-08 04:41 | 46.23798 | 6.11077 | 1383 ft | 6 kts | 174° |
| 2026-05-08 04:41 | 46.23732 | 6.11085 | 1388 ft | 12 kts | 187° |
| 2026-05-08 04:41 | 46.23654 | 6.11004 | 1405 ft | 16 kts | 224° |
| 2026-05-08 04:42 | 46.23578 | 6.10897 | 1396 ft | 11 kts | 226° |
| 2026-05-08 04:42 | 46.23519 | 6.10807 | 1396 ft | 14 kts | 226° |
| 2026-05-08 04:42 | 46.23446 | 6.10707 | 1407 ft | 15 kts | 196° |
| 2026-05-08 04:42 | 46.23363 | 6.10780 | 1402 ft | 7 kts | 137° |
| 2026-05-08 04:43 | 46.23319 | 6.10826 | 1401 ft | 9 kts | 141° |
| 2026-05-08 04:43 | 46.23277 | 6.10884 | 1398 ft | 0 kts | 134° |
| 2026-05-08 04:47 | 46.23134 | 6.10696 | 1405 ft | 0 kts | 135° |